sensor_id;sensor_type;location;lat;lon;timestamp;temperature;humidity
29201;DHT22;16244;51.956;12.980;2022-10-16T00:01:10;14.50;99.90
29201;DHT22;16244;51.956;12.980;2022-10-16T00:03:39;14.50;99.90
29201;DHT22;16244;51.956;12.980;2022-10-16T00:06:07;14.50;99.90
29201;DHT22;16244;51.956;12.980;2022-10-16T00:08:36;14.50;99.90
29201;DHT22;16244;51.956;12.980;2022-10-16T00:11:05;14.40;99.90
29201;DHT22;16244;51.956;12.980;2022-10-16T00:13:37;14.50;99.90
29201;DHT22;16244;51.956;12.980;2022-10-16T00:16:05;14.40;99.90
29201;DHT22;16244;51.956;12.980;2022-10-16T00:18:33;14.40;99.90
29201;DHT22;16244;51.956;12.980;2022-10-16T00:21:05;14.40;99.90
29201;DHT22;16244;51.956;12.980;2022-10-16T00:23:33;14.30;99.90
29201;DHT22;16244;51.956;12.980;2022-10-16T00:26:02;14.30;99.90
29201;DHT22;16244;51.956;12.980;2022-10-16T00:28:30;14.30;99.90
29201;DHT22;16244;51.956;12.980;2022-10-16T00:31:03;14.30;99.90
29201;DHT22;16244;51.956;12.980;2022-10-16T00:33:31;14.30;99.90
29201;DHT22;16244;51.956;12.980;2022-10-16T00:35:58;14.20;99.90
29201;DHT22;16244;51.956;12.980;2022-10-16T00:38:25;14.20;99.90
29201;DHT22;16244;51.956;12.980;2022-10-16T00:40:53;14.20;99.90
29201;DHT22;16244;51.956;12.980;2022-10-16T00:43:36;14.10;99.90
29201;DHT22;16244;51.956;12.980;2022-10-16T00:46:11;14.10;99.90
29201;DHT22;16244;51.956;12.980;2022-10-16T00:48:40;14.10;99.90
29201;DHT22;16244;51.956;12.980;2022-10-16T00:51:08;14.10;99.90
29201;DHT22;16244;51.956;12.980;2022-10-16T00:53:35;14.10;99.90
29201;DHT22;16244;51.956;12.980;2022-10-16T00:56:03;14.10;99.90
29201;DHT22;16244;51.956;12.980;2022-10-16T00:58:31;14.00;99.90
29201;DHT22;16244;51.956;12.980;2022-10-16T01:00:58;14.00;99.90
29201;DHT22;16244;51.956;12.980;2022-10-16T01:03:30;14.00;99.90
29201;DHT22;16244;51.956;12.980;2022-10-16T01:06:10;14.00;99.90
29201;DHT22;16244;51.956;12.980;2022-10-16T01:08:49;14.00;99.90
29201;DHT22;16244;51.956;12.980;2022-10-16T01:11:27;14.00;99.90
29201;DHT22;16244;51.956;12.980;2022-10-16T01:14:01;14.00;99.90
29201;DHT22;16244;51.956;12.980;2022-10-16T01:16:34;13.90;99.90
29201;DHT22;16244;51.956;12.980;2022-10-16T01:19:12;13.90;99.90
29201;DHT22;16244;51.956;12.980;2022-10-16T01:21:42;13.90;99.90
29201;DHT22;16244;51.956;12.980;2022-10-16T01:24:17;13.90;99.90
29201;DHT22;16244;51.956;12.980;2022-10-16T01:27:08;13.90;99.90
29201;DHT22;16244;51.956;12.980;2022-10-16T01:29:39;13.80;99.90
29201;DHT22;16244;51.956;12.980;2022-10-16T01:32:12;13.80;99.90
29201;DHT22;16244;51.956;12.980;2022-10-16T01:34:47;13.90;99.90
29201;DHT22;16244;51.956;12.980;2022-10-16T01:37:20;13.80;99.90
29201;DHT22;16244;51.956;12.980;2022-10-16T01:39:48;13.90;99.90
29201;DHT22;16244;51.956;12.980;2022-10-16T01:42:21;13.90;99.90
29201;DHT22;16244;51.956;12.980;2022-10-16T01:44:51;13.90;99.90
29201;DHT22;16244;51.956;12.980;2022-10-16T01:47:22;13.90;99.90
29201;DHT22;16244;51.956;12.980;2022-10-16T01:49:50;13.90;99.90
29201;DHT22;16244;51.956;12.980;2022-10-16T01:52:21;13.90;99.90
29201;DHT22;16244;51.956;12.980;2022-10-16T01:54:53;13.90;99.90
29201;DHT22;16244;51.956;12.980;2022-10-16T01:57:24;13.90;99.90
29201;DHT22;16244;51.956;12.980;2022-10-16T01:59:55;13.90;99.90
29201;DHT22;16244;51.956;12.980;2022-10-16T02:02:27;13.90;99.90
29201;DHT22;16244;51.956;12.980;2022-10-16T02:04:58;13.90;99.90
29201;DHT22;16244;51.956;12.980;2022-10-16T02:07:27;13.90;99.90
29201;DHT22;16244;51.956;12.980;2022-10-16T02:09:54;13.90;99.90
29201;DHT22;16244;51.956;12.980;2022-10-16T02:12:26;13.90;99.90
29201;DHT22;16244;51.956;12.980;2022-10-16T02:14:54;13.90;99.90
29201;DHT22;16244;51.956;12.980;2022-10-16T02:17:22;13.90;99.90
29201;DHT22;16244;51.956;12.980;2022-10-16T02:19:51;13.80;99.90
29201;DHT22;16244;51.956;12.980;2022-10-16T02:22:22;13.90;99.90
29201;DHT22;16244;51.956;12.980;2022-10-16T02:24:54;13.90;99.90
29201;DHT22;16244;51.956;12.980;2022-10-16T02:27:29;13.90;99.90
29201;DHT22;16244;51.956;12.980;2022-10-16T02:30:03;13.80;99.90
29201;DHT22;16244;51.956;12.980;2022-10-16T02:32:35;13.80;99.90
29201;DHT22;16244;51.956;12.980;2022-10-16T02:35:05;13.80;99.90
29201;DHT22;16244;51.956;12.980;2022-10-16T02:37:33;13.70;99.90
29201;DHT22;16244;51.956;12.980;2022-10-16T02:40:01;13.70;99.90
29201;DHT22;16244;51.956;12.980;2022-10-16T02:42:35;13.70;99.90
29201;DHT22;16244;51.956;12.980;2022-10-16T02:45:03;13.60;99.90
29201;DHT22;16244;51.956;12.980;2022-10-16T02:47:31;13.60;99.90
29201;DHT22;16244;51.956;12.980;2022-10-16T02:49:58;13.50;99.90
29201;DHT22;16244;51.956;12.980;2022-10-16T02:52:25;13.50;99.90
29201;DHT22;16244;51.956;12.980;2022-10-16T02:54:53;13.40;99.90
29201;DHT22;16244;51.956;12.980;2022-10-16T02:57:20;13.40;99.90
29201;DHT22;16244;51.956;12.980;2022-10-16T02:59:48;13.30;99.90
29201;DHT22;16244;51.956;12.980;2022-10-16T03:02:16;13.20;99.90
29201;DHT22;16244;51.956;12.980;2022-10-16T03:04:43;13.20;99.90
29201;DHT22;16244;51.956;12.980;2022-10-16T03:07:10;13.10;99.90
29201;DHT22;16244;51.956;12.980;2022-10-16T03:09:37;13.10;99.90
29201;DHT22;16244;51.956;12.980;2022-10-16T03:12:05;13.00;99.90
29201;DHT22;16244;51.956;12.980;2022-10-16T03:14:32;13.00;99.90
29201;DHT22;16244;51.956;12.980;2022-10-16T03:17:01;12.90;99.90
29201;DHT22;16244;51.956;12.980;2022-10-16T03:19:28;12.90;99.90
29201;DHT22;16244;51.956;12.980;2022-10-16T03:21:55;12.90;99.90
29201;DHT22;16244;51.956;12.980;2022-10-16T03:24:23;12.90;99.90
29201;DHT22;16244;51.956;12.980;2022-10-16T03:26:50;13.00;99.90
29201;DHT22;16244;51.956;12.980;2022-10-16T03:29:18;13.00;99.90
29201;DHT22;16244;51.956;12.980;2022-10-16T03:31:45;13.00;99.90
29201;DHT22;16244;51.956;12.980;2022-10-16T03:34:15;13.10;99.90
29201;DHT22;16244;51.956;12.980;2022-10-16T03:36:43;13.10;99.90
29201;DHT22;16244;51.956;12.980;2022-10-16T03:39:10;13.10;99.90
29201;DHT22;16244;51.956;12.980;2022-10-16T03:41:37;13.20;99.90
29201;DHT22;16244;51.956;12.980;2022-10-16T03:44:05;13.30;99.90
29201;DHT22;16244;51.956;12.980;2022-10-16T03:46:32;13.30;99.90
29201;DHT22;16244;51.956;12.980;2022-10-16T03:49:00;13.30;99.90
29201;DHT22;16244;51.956;12.980;2022-10-16T03:51:28;13.30;99.90
29201;DHT22;16244;51.956;12.980;2022-10-16T03:53:56;13.30;99.90
29201;DHT22;16244;51.956;12.980;2022-10-16T03:56:23;13.30;99.90
29201;DHT22;16244;51.956;12.980;2022-10-16T03:58:50;13.30;99.90
29201;DHT22;16244;51.956;12.980;2022-10-16T04:01:18;13.20;99.90
29201;DHT22;16244;51.956;12.980;2022-10-16T04:03:45;13.30;99.90
29201;DHT22;16244;51.956;12.980;2022-10-16T04:06:12;13.30;99.90
29201;DHT22;16244;51.956;12.980;2022-10-16T04:08:42;13.30;99.90
29201;DHT22;16244;51.956;12.980;2022-10-16T04:11:09;13.30;99.90
29201;DHT22;16244;51.956;12.980;2022-10-16T04:13:37;13.20;99.90
29201;DHT22;16244;51.956;12.980;2022-10-16T04:16:05;13.20;99.90
29201;DHT22;16244;51.956;12.980;2022-10-16T04:18:32;13.20;99.90
29201;DHT22;16244;51.956;12.980;2022-10-16T04:21:02;13.10;99.90
29201;DHT22;16244;51.956;12.980;2022-10-16T04:23:31;13.10;99.90
29201;DHT22;16244;51.956;12.980;2022-10-16T04:25:59;13.10;99.90
29201;DHT22;16244;51.956;12.980;2022-10-16T04:28:27;13.10;99.90
29201;DHT22;16244;51.956;12.980;2022-10-16T04:30:54;13.10;99.90
29201;DHT22;16244;51.956;12.980;2022-10-16T04:33:22;13.20;99.90
29201;DHT22;16244;51.956;12.980;2022-10-16T04:35:56;13.20;99.90
29201;DHT22;16244;51.956;12.980;2022-10-16T04:38:23;13.20;99.90
29201;DHT22;16244;51.956;12.980;2022-10-16T04:40:51;13.20;99.90
29201;DHT22;16244;51.956;12.980;2022-10-16T04:43:20;13.20;99.90
29201;DHT22;16244;51.956;12.980;2022-10-16T04:45:47;13.20;99.90
29201;DHT22;16244;51.956;12.980;2022-10-16T04:48:16;13.20;99.90
29201;DHT22;16244;51.956;12.980;2022-10-16T04:50:43;13.20;99.90
29201;DHT22;16244;51.956;12.980;2022-10-16T04:53:11;13.20;99.90
29201;DHT22;16244;51.956;12.980;2022-10-16T04:55:38;13.30;99.90
29201;DHT22;16244;51.956;12.980;2022-10-16T04:58:06;13.30;99.90
29201;DHT22;16244;51.956;12.980;2022-10-16T05:00:35;13.30;99.90
29201;DHT22;16244;51.956;12.980;2022-10-16T05:03:02;13.30;99.90
29201;DHT22;16244;51.956;12.980;2022-10-16T05:05:33;13.30;99.90
29201;DHT22;16244;51.956;12.980;2022-10-16T05:08:01;13.30;99.90
29201;DHT22;16244;51.956;12.980;2022-10-16T05:10:28;13.30;99.90
29201;DHT22;16244;51.956;12.980;2022-10-16T05:12:55;13.30;99.90
29201;DHT22;16244;51.956;12.980;2022-10-16T05:15:23;13.40;99.90
29201;DHT22;16244;51.956;12.980;2022-10-16T05:17:53;13.30;99.90
29201;DHT22;16244;51.956;12.980;2022-10-16T05:20:21;13.30;99.90
29201;DHT22;16244;51.956;12.980;2022-10-16T05:22:49;13.30;99.90
29201;DHT22;16244;51.956;12.980;2022-10-16T05:25:16;13.30;99.90
29201;DHT22;16244;51.956;12.980;2022-10-16T05:27:46;13.40;99.90
29201;DHT22;16244;51.956;12.980;2022-10-16T05:30:14;13.40;99.90
29201;DHT22;16244;51.956;12.980;2022-10-16T05:32:41;13.40;99.90
29201;DHT22;16244;51.956;12.980;2022-10-16T05:35:10;13.40;99.90
29201;DHT22;16244;51.956;12.980;2022-10-16T05:37:37;13.40;99.90
29201;DHT22;16244;51.956;12.980;2022-10-16T05:40:05;13.50;99.90
29201;DHT22;16244;51.956;12.980;2022-10-16T05:42:33;13.50;99.90
29201;DHT22;16244;51.956;12.980;2022-10-16T05:45:00;13.50;99.90
29201;DHT22;16244;51.956;12.980;2022-10-16T05:47:27;13.50;99.90
29201;DHT22;16244;51.956;12.980;2022-10-16T05:49:54;13.50;99.90
29201;DHT22;16244;51.956;12.980;2022-10-16T05:52:23;13.50;99.90
29201;DHT22;16244;51.956;12.980;2022-10-16T05:54:50;13.50;99.90
29201;DHT22;16244;51.956;12.980;2022-10-16T05:57:17;13.50;99.90
29201;DHT22;16244;51.956;12.980;2022-10-16T05:59:44;13.50;99.90
29201;DHT22;16244;51.956;12.980;2022-10-16T06:02:13;13.40;99.90
29201;DHT22;16244;51.956;12.980;2022-10-16T06:04:40;13.40;99.90
29201;DHT22;16244;51.956;12.980;2022-10-16T06:07:08;13.40;99.90
29201;DHT22;16244;51.956;12.980;2022-10-16T06:09:36;13.50;99.90
29201;DHT22;16244;51.956;12.980;2022-10-16T06:12:04;13.50;99.90
29201;DHT22;16244;51.956;12.980;2022-10-16T06:14:32;13.50;99.90
29201;DHT22;16244;51.956;12.980;2022-10-16T06:16:59;13.60;99.90
29201;DHT22;16244;51.956;12.980;2022-10-16T06:19:26;13.70;99.90
29201;DHT22;16244;51.956;12.980;2022-10-16T06:21:53;13.70;99.90
29201;DHT22;16244;51.956;12.980;2022-10-16T06:24:21;13.80;99.90
29201;DHT22;16244;51.956;12.980;2022-10-16T06:26:50;13.80;99.90
29201;DHT22;16244;51.956;12.980;2022-10-16T06:29:18;13.90;99.90
29201;DHT22;16244;51.956;12.980;2022-10-16T06:31:45;13.90;99.90
29201;DHT22;16244;51.956;12.980;2022-10-16T06:34:12;14.00;99.90
29201;DHT22;16244;51.956;12.980;2022-10-16T06:36:40;14.00;99.90
29201;DHT22;16244;51.956;12.980;2022-10-16T06:39:09;14.10;99.90
29201;DHT22;16244;51.956;12.980;2022-10-16T06:41:36;14.10;99.90
29201;DHT22;16244;51.956;12.980;2022-10-16T06:44:07;14.20;99.90
29201;DHT22;16244;51.956;12.980;2022-10-16T06:46:34;14.20;99.90
29201;DHT22;16244;51.956;12.980;2022-10-16T06:49:02;14.30;99.90
29201;DHT22;16244;51.956;12.980;2022-10-16T06:51:29;14.30;99.90
29201;DHT22;16244;51.956;12.980;2022-10-16T06:54:00;14.30;99.90
29201;DHT22;16244;51.956;12.980;2022-10-16T06:56:28;14.40;99.90
29201;DHT22;16244;51.956;12.980;2022-10-16T06:58:57;14.40;99.90
29201;DHT22;16244;51.956;12.980;2022-10-16T07:01:26;14.50;99.90
29201;DHT22;16244;51.956;12.980;2022-10-16T07:03:54;14.50;99.90
29201;DHT22;16244;51.956;12.980;2022-10-16T07:06:23;14.60;99.90
29201;DHT22;16244;51.956;12.980;2022-10-16T07:08:51;14.70;99.90
29201;DHT22;16244;51.956;12.980;2022-10-16T07:11:20;14.90;99.90
29201;DHT22;16244;51.956;12.980;2022-10-16T07:13:48;15.10;99.90
29201;DHT22;16244;51.956;12.980;2022-10-16T07:16:17;15.40;99.90
29201;DHT22;16244;51.956;12.980;2022-10-16T07:18:47;15.80;99.90
29201;DHT22;16244;51.956;12.980;2022-10-16T07:21:17;16.00;99.90
29201;DHT22;16244;51.956;12.980;2022-10-16T07:23:50;16.20;99.90
29201;DHT22;16244;51.956;12.980;2022-10-16T07:26:17;16.30;99.90
29201;DHT22;16244;51.956;12.980;2022-10-16T07:28:45;16.20;99.90
29201;DHT22;16244;51.956;12.980;2022-10-16T07:31:13;16.10;99.90
29201;DHT22;16244;51.956;12.980;2022-10-16T07:33:42;16.00;99.90
29201;DHT22;16244;51.956;12.980;2022-10-16T07:36:12;16.00;99.90
29201;DHT22;16244;51.956;12.980;2022-10-16T07:38:39;15.80;99.90
29201;DHT22;16244;51.956;12.980;2022-10-16T07:41:11;15.80;99.90
29201;DHT22;16244;51.956;12.980;2022-10-16T07:43:38;15.70;99.90
29201;DHT22;16244;51.956;12.980;2022-10-16T07:46:06;15.60;99.90
29201;DHT22;16244;51.956;12.980;2022-10-16T07:48:34;15.60;99.90
29201;DHT22;16244;51.956;12.980;2022-10-16T07:51:04;15.60;99.90
29201;DHT22;16244;51.956;12.980;2022-10-16T07:53:33;15.60;99.90
29201;DHT22;16244;51.956;12.980;2022-10-16T07:56:01;15.60;99.90
29201;DHT22;16244;51.956;12.980;2022-10-16T07:58:30;15.60;99.90
29201;DHT22;16244;51.956;12.980;2022-10-16T08:00:57;15.60;99.90
29201;DHT22;16244;51.956;12.980;2022-10-16T08:03:25;15.60;99.90
29201;DHT22;16244;51.956;12.980;2022-10-16T08:05:52;15.70;99.90
29201;DHT22;16244;51.956;12.980;2022-10-16T08:08:20;15.70;99.90
29201;DHT22;16244;51.956;12.980;2022-10-16T08:10:49;15.70;99.90
29201;DHT22;16244;51.956;12.980;2022-10-16T08:13:16;15.70;99.90
29201;DHT22;16244;51.956;12.980;2022-10-16T08:15:43;15.80;99.90
29201;DHT22;16244;51.956;12.980;2022-10-16T08:18:12;15.90;99.90
29201;DHT22;16244;51.956;12.980;2022-10-16T08:20:41;15.90;99.90
29201;DHT22;16244;51.956;12.980;2022-10-16T08:23:09;16.00;99.90
29201;DHT22;16244;51.956;12.980;2022-10-16T08:25:37;16.10;99.90
29201;DHT22;16244;51.956;12.980;2022-10-16T08:28:06;16.10;99.90
29201;DHT22;16244;51.956;12.980;2022-10-16T08:30:34;16.20;99.90
29201;DHT22;16244;51.956;12.980;2022-10-16T08:33:01;16.20;99.90
29201;DHT22;16244;51.956;12.980;2022-10-16T08:35:29;16.30;99.90
29201;DHT22;16244;51.956;12.980;2022-10-16T08:37:56;16.40;99.90
29201;DHT22;16244;51.956;12.980;2022-10-16T08:40:26;16.40;99.90
29201;DHT22;16244;51.956;12.980;2022-10-16T08:43:03;16.60;99.90
29201;DHT22;16244;51.956;12.980;2022-10-16T08:45:49;16.80;99.90
29201;DHT22;16244;51.956;12.980;2022-10-16T08:48:25;17.00;99.90
29201;DHT22;16244;51.956;12.980;2022-10-16T08:50:55;17.30;99.90
29201;DHT22;16244;51.956;12.980;2022-10-16T08:53:26;17.60;99.90
29201;DHT22;16244;51.956;12.980;2022-10-16T08:55:55;18.00;99.90
29201;DHT22;16244;51.956;12.980;2022-10-16T08:58:27;18.20;99.90
29201;DHT22;16244;51.956;12.980;2022-10-16T09:00:59;18.40;99.90
29201;DHT22;16244;51.956;12.980;2022-10-16T09:04:01;18.40;99.90
29201;DHT22;16244;51.956;12.980;2022-10-16T09:06:42;18.30;99.90
29201;DHT22;16244;51.956;12.980;2022-10-16T09:09:32;18.10;99.90
29201;DHT22;16244;51.956;12.980;2022-10-16T09:12:07;18.10;99.90
29201;DHT22;16244;51.956;12.980;2022-10-16T09:14:44;18.30;99.90
29201;DHT22;16244;51.956;12.980;2022-10-16T09:17:30;18.50;99.90
29201;DHT22;16244;51.956;12.980;2022-10-16T09:20:13;18.60;99.90
29201;DHT22;16244;51.956;12.980;2022-10-16T09:22:43;18.60;99.90
29201;DHT22;16244;51.956;12.980;2022-10-16T09:25:12;18.60;99.90
29201;DHT22;16244;51.956;12.980;2022-10-16T09:27:40;18.50;99.90
29201;DHT22;16244;51.956;12.980;2022-10-16T09:30:12;18.40;99.90
29201;DHT22;16244;51.956;12.980;2022-10-16T09:32:42;18.30;99.90
29201;DHT22;16244;51.956;12.980;2022-10-16T09:35:13;18.20;99.90
29201;DHT22;16244;51.956;12.980;2022-10-16T09:37:42;18.30;99.90
29201;DHT22;16244;51.956;12.980;2022-10-16T09:40:13;18.30;99.90
29201;DHT22;16244;51.956;12.980;2022-10-16T09:42:41;18.30;99.90
29201;DHT22;16244;51.956;12.980;2022-10-16T09:45:21;18.40;99.90
29201;DHT22;16244;51.956;12.980;2022-10-16T09:47:50;18.60;99.90
29201;DHT22;16244;51.956;12.980;2022-10-16T09:50:23;18.70;99.90
29201;DHT22;16244;51.956;12.980;2022-10-16T09:53:04;18.90;99.90
29201;DHT22;16244;51.956;12.980;2022-10-16T09:55:31;19.00;99.90
29201;DHT22;16244;51.956;12.980;2022-10-16T09:57:58;19.10;99.90
29201;DHT22;16244;51.956;12.980;2022-10-16T10:00:25;19.40;99.90
29201;DHT22;16244;51.956;12.980;2022-10-16T10:02:54;19.60;99.90
29201;DHT22;16244;51.956;12.980;2022-10-16T10:05:23;19.60;99.90
29201;DHT22;16244;51.956;12.980;2022-10-16T10:07:55;19.60;99.90
29201;DHT22;16244;51.956;12.980;2022-10-16T10:10:24;19.40;99.90
29201;DHT22;16244;51.956;12.980;2022-10-16T10:12:53;19.40;99.90
29201;DHT22;16244;51.956;12.980;2022-10-16T10:15:22;19.40;99.90
29201;DHT22;16244;51.956;12.980;2022-10-16T10:17:51;19.30;99.90
29201;DHT22;16244;51.956;12.980;2022-10-16T10:20:26;19.40;99.90
29201;DHT22;16244;51.956;12.980;2022-10-16T10:22:54;19.40;99.90
29201;DHT22;16244;51.956;12.980;2022-10-16T10:25:37;19.50;99.90
29201;DHT22;16244;51.956;12.980;2022-10-16T10:28:17;19.60;99.90
29201;DHT22;16244;51.956;12.980;2022-10-16T10:30:54;19.60;99.90
29201;DHT22;16244;51.956;12.980;2022-10-16T10:33:28;19.70;99.90
29201;DHT22;16244;51.956;12.980;2022-10-16T10:36:08;19.80;99.90
29201;DHT22;16244;51.956;12.980;2022-10-16T10:38:43;19.90;99.90
29201;DHT22;16244;51.956;12.980;2022-10-16T10:44:18;19.80;99.90
29201;DHT22;16244;51.956;12.980;2022-10-16T10:46:50;19.70;99.90
29201;DHT22;16244;51.956;12.980;2022-10-16T10:57:10;25.00;59.60
29201;DHT22;16244;51.956;12.980;2022-10-16T11:00:09;20.30;64.10
29201;DHT22;16244;51.956;12.980;2022-10-16T11:02:43;19.80;67.10
29201;DHT22;16244;51.956;12.980;2022-10-16T11:05:42;20.00;64.30
29201;DHT22;16244;51.956;12.980;2022-10-16T11:08:15;19.70;66.50
29201;DHT22;16244;51.956;12.980;2022-10-16T11:10:49;19.50;66.50
29201;DHT22;16244;51.956;12.980;2022-10-16T11:13:28;19.40;67.80
29201;DHT22;16244;51.956;12.980;2022-10-16T11:15:59;19.30;66.40
29201;DHT22;16244;51.956;12.980;2022-10-16T11:18:37;19.10;66.20
29201;DHT22;16244;51.956;12.980;2022-10-16T11:21:08;19.00;67.20
29201;DHT22;16244;51.956;12.980;2022-10-16T11:23:41;18.90;67.90
29201;DHT22;16244;51.956;12.980;2022-10-16T11:26:14;18.80;67.80
29201;DHT22;16244;51.956;12.980;2022-10-16T11:28:47;18.80;68.30
29201;DHT22;16244;51.956;12.980;2022-10-16T11:31:19;18.70;67.50
29201;DHT22;16244;51.956;12.980;2022-10-16T11:33:54;18.60;67.90
29201;DHT22;16244;51.956;12.980;2022-10-16T11:36:25;18.60;67.30
29201;DHT22;16244;51.956;12.980;2022-10-16T11:38:58;18.60;67.40
29201;DHT22;16244;51.956;12.980;2022-10-16T11:41:32;18.70;67.70
29201;DHT22;16244;51.956;12.980;2022-10-16T11:44:16;19.00;66.50
29201;DHT22;16244;51.956;12.980;2022-10-16T11:46:49;19.10;65.30
29201;DHT22;16244;51.956;12.980;2022-10-16T11:49:20;19.30;66.30
29201;DHT22;16244;51.956;12.980;2022-10-16T11:51:55;19.40;64.70
29201;DHT22;16244;51.956;12.980;2022-10-16T11:54:30;19.30;63.30
29201;DHT22;16244;51.956;12.980;2022-10-16T11:57:02;19.10;63.70
29201;DHT22;16244;51.956;12.980;2022-10-16T11:59:37;19.00;64.00
29201;DHT22;16244;51.956;12.980;2022-10-16T12:02:24;19.00;63.60
29201;DHT22;16244;51.956;12.980;2022-10-16T12:05:02;18.90;63.60
29201;DHT22;16244;51.956;12.980;2022-10-16T12:07:35;18.90;64.00
29201;DHT22;16244;51.956;12.980;2022-10-16T12:10:11;18.90;64.80
29201;DHT22;16244;51.956;12.980;2022-10-16T12:12:45;18.90;64.20
29201;DHT22;16244;51.956;12.980;2022-10-16T12:15:23;19.00;64.30
29201;DHT22;16244;51.956;12.980;2022-10-16T12:17:51;19.00;64.90
29201;DHT22;16244;51.956;12.980;2022-10-16T12:20:22;19.00;65.00
29201;DHT22;16244;51.956;12.980;2022-10-16T12:22:52;19.10;64.70
29201;DHT22;16244;51.956;12.980;2022-10-16T12:25:25;19.00;64.50
29201;DHT22;16244;51.956;12.980;2022-10-16T12:27:58;19.10;65.00
29201;DHT22;16244;51.956;12.980;2022-10-16T12:30:29;19.00;64.70
29201;DHT22;16244;51.956;12.980;2022-10-16T12:32:58;19.00;65.20
29201;DHT22;16244;51.956;12.980;2022-10-16T12:35:30;18.90;65.30
29201;DHT22;16244;51.956;12.980;2022-10-16T12:38:14;18.90;65.50
29201;DHT22;16244;51.956;12.980;2022-10-16T12:40:43;18.90;66.60
29201;DHT22;16244;51.956;12.980;2022-10-16T12:43:22;19.00;66.70
29201;DHT22;16244;51.956;12.980;2022-10-16T12:46:01;19.00;67.00
29201;DHT22;16244;51.956;12.980;2022-10-16T12:48:29;18.90;66.60
29201;DHT22;16244;51.956;12.980;2022-10-16T12:50:57;18.90;66.80
29201;DHT22;16244;51.956;12.980;2022-10-16T12:53:26;18.90;66.90
29201;DHT22;16244;51.956;12.980;2022-10-16T12:56:01;18.90;67.10
29201;DHT22;16244;51.956;12.980;2022-10-16T12:58:53;19.00;66.60
29201;DHT22;16244;51.956;12.980;2022-10-16T13:01:37;18.90;67.20
29201;DHT22;16244;51.956;12.980;2022-10-16T13:04:22;18.90;66.70
29201;DHT22;16244;51.956;12.980;2022-10-16T13:06:56;18.90;66.40
29201;DHT22;16244;51.956;12.980;2022-10-16T13:09:38;18.90;67.20
29201;DHT22;16244;51.956;12.980;2022-10-16T13:12:16;18.90;66.40
29201;DHT22;16244;51.956;12.980;2022-10-16T13:15:06;19.00;66.20
29201;DHT22;16244;51.956;12.980;2022-10-16T13:17:45;19.00;66.20
29201;DHT22;16244;51.956;12.980;2022-10-16T13:20:21;19.00;66.00
29201;DHT22;16244;51.956;12.980;2022-10-16T13:22:57;19.00;66.70
29201;DHT22;16244;51.956;12.980;2022-10-16T13:25:36;19.10;66.20
29201;DHT22;16244;51.956;12.980;2022-10-16T13:28:07;19.10;65.90
29201;DHT22;16244;51.956;12.980;2022-10-16T13:30:38;19.10;64.00
29201;DHT22;16244;51.956;12.980;2022-10-16T13:33:13;19.10;64.10
29201;DHT22;16244;51.956;12.980;2022-10-16T13:35:48;19.10;63.50
29201;DHT22;16244;51.956;12.980;2022-10-16T13:38:17;19.10;63.90
29201;DHT22;16244;51.956;12.980;2022-10-16T13:40:50;19.10;63.80
29201;DHT22;16244;51.956;12.980;2022-10-16T13:43:18;19.10;62.90
29201;DHT22;16244;51.956;12.980;2022-10-16T13:45:54;19.10;63.60
29201;DHT22;16244;51.956;12.980;2022-10-16T13:48:23;19.10;63.40
29201;DHT22;16244;51.956;12.980;2022-10-16T13:51:01;19.10;63.00
29201;DHT22;16244;51.956;12.980;2022-10-16T13:53:31;19.10;63.20
29201;DHT22;16244;51.956;12.980;2022-10-16T13:55:58;19.10;62.70
29201;DHT22;16244;51.956;12.980;2022-10-16T13:58:27;19.10;63.20
29201;DHT22;16244;51.956;12.980;2022-10-16T14:00:56;19.10;62.60
29201;DHT22;16244;51.956;12.980;2022-10-16T14:03:25;19.10;63.10
29201;DHT22;16244;51.956;12.980;2022-10-16T14:05:54;19.10;63.50
29201;DHT22;16244;51.956;12.980;2022-10-16T14:08:23;19.10;63.20
29201;DHT22;16244;51.956;12.980;2022-10-16T14:10:53;19.10;64.30
29201;DHT22;16244;51.956;12.980;2022-10-16T14:13:26;19.10;64.00
29201;DHT22;16244;51.956;12.980;2022-10-16T14:15:55;19.10;64.50
29201;DHT22;16244;51.956;12.980;2022-10-16T14:18:27;19.10;64.50
29201;DHT22;16244;51.956;12.980;2022-10-16T14:21:03;19.10;65.50
29201;DHT22;16244;51.956;12.980;2022-10-16T14:23:32;19.10;64.70
29201;DHT22;16244;51.956;12.980;2022-10-16T14:26:16;19.10;64.10
29201;DHT22;16244;51.956;12.980;2022-10-16T14:28:44;19.10;65.50
29201;DHT22;16244;51.956;12.980;2022-10-16T14:31:25;19.20;65.40
29201;DHT22;16244;51.956;12.980;2022-10-16T14:33:54;19.10;65.80
29201;DHT22;16244;51.956;12.980;2022-10-16T14:36:22;18.90;66.30
29201;DHT22;16244;51.956;12.980;2022-10-16T14:39:00;18.80;67.20
29201;DHT22;16244;51.956;12.980;2022-10-16T14:41:29;18.70;67.30
29201;DHT22;16244;51.956;12.980;2022-10-16T14:44:01;18.60;67.30
29201;DHT22;16244;51.956;12.980;2022-10-16T14:46:32;18.60;68.20
29201;DHT22;16244;51.956;12.980;2022-10-16T14:49:04;18.50;68.30
29201;DHT22;16244;51.956;12.980;2022-10-16T14:51:41;18.50;68.10
29201;DHT22;16244;51.956;12.980;2022-10-16T14:54:11;18.50;67.80
29201;DHT22;16244;51.956;12.980;2022-10-16T14:56:45;18.50;68.30
29201;DHT22;16244;51.956;12.980;2022-10-16T14:59:16;18.50;68.80
29201;DHT22;16244;51.956;12.980;2022-10-16T15:01:44;18.50;67.90
29201;DHT22;16244;51.956;12.980;2022-10-16T15:04:13;18.50;68.00
29201;DHT22;16244;51.956;12.980;2022-10-16T15:06:42;18.40;68.90
29201;DHT22;16244;51.956;12.980;2022-10-16T15:09:09;18.40;69.20
29201;DHT22;16244;51.956;12.980;2022-10-16T15:11:36;18.30;69.20
29201;DHT22;16244;51.956;12.980;2022-10-16T15:14:04;18.20;69.40
29201;DHT22;16244;51.956;12.980;2022-10-16T15:16:31;18.20;69.70
29201;DHT22;16244;51.956;12.980;2022-10-16T15:18:58;18.20;69.90
29201;DHT22;16244;51.956;12.980;2022-10-16T15:21:28;18.10;69.70
29201;DHT22;16244;51.956;12.980;2022-10-16T15:23:56;18.10;69.80
29201;DHT22;16244;51.956;12.980;2022-10-16T15:26:24;18.10;70.10
29201;DHT22;16244;51.956;12.980;2022-10-16T15:28:52;18.00;70.50
29201;DHT22;16244;51.956;12.980;2022-10-16T15:31:19;18.00;71.10
29201;DHT22;16244;51.956;12.980;2022-10-16T15:33:50;18.00;71.60
29201;DHT22;16244;51.956;12.980;2022-10-16T15:36:28;17.90;71.30
29201;DHT22;16244;51.956;12.980;2022-10-16T15:38:56;17.80;71.40
29201;DHT22;16244;51.956;12.980;2022-10-16T15:41:23;17.80;71.70
29201;DHT22;16244;51.956;12.980;2022-10-16T15:43:51;17.70;71.20
29201;DHT22;16244;51.956;12.980;2022-10-16T15:46:19;17.70;71.80
29201;DHT22;16244;51.956;12.980;2022-10-16T15:48:48;17.70;72.10